Time;durP1;ratioP1;P1;durP2;ratioP2;P2;SDS_P1;SDS_P2;PMS_P1;PMS_P2;Temp;Humidity;BMP_temperature;BMP_pressure;BME280_temperature;BME280_humidity;BME280_pressure;Samples;Min_cycle;Max_cycle;Signal;HPM_P1;HPM_P2
2023/10/05 00:01:12;;;;;;;22.83;7.00;;;12.30;99.90;;;;;;4960158;28;20492;-81
2023/10/05 00:03:43;;;;;;;20.42;5.95;;;12.30;99.90;;;;;;4959784;28;20456;-81
2023/10/05 00:06:17;;;;;;;17.35;6.10;;;12.40;99.90;;;;;;4960847;28;20043;-81
2023/10/05 00:08:47;;;;;;;21.75;7.30;;;12.40;99.90;;;;;;4958391;28;20054;-80
2023/10/05 00:11:36;;;;;;;17.45;6.53;;;12.40;99.90;;;;;;4956922;28;20117;-80
2023/10/05 00:14:07;;;;;;;19.13;6.28;;;12.40;99.90;;;;;;4956963;28;20419;-81
2023/10/05 00:16:36;;;;;;;24.85;6.72;;;12.30;99.90;;;;;;4962414;28;20030;-81
2023/10/05 00:19:12;;;;;;;20.65;7.07;;;12.30;99.90;;;;;;4960360;28;20047;-80
2023/10/05 00:21:56;;;;;;;24.45;7.80;;;12.40;99.90;;;;;;4960388;28;20997;-81
2023/10/05 00:24:34;;;;;;;17.65;6.57;;;12.40;99.90;;;;;;4953781;28;20121;-81
2023/10/05 00:27:03;;;;;;;19.58;6.53;;;12.30;99.90;;;;;;4959662;28;20487;-80
2023/10/05 00:29:39;;;;;;;18.98;6.10;;;12.30;99.90;;;;;;4963729;28;20508;-81
2023/10/05 00:32:08;;;;;;;21.10;6.80;;;12.30;99.90;;;;;;4953539;28;20435;-81
2023/10/05 00:34:34;;;;;;;25.58;8.35;;;12.30;99.90;;;;;;4953972;28;20031;-81
2023/10/05 00:37:00;;;;;;;20.90;7.35;;;12.40;99.90;;;;;;4961627;28;20518;-80
2023/10/05 00:39:29;;;;;;;19.63;7.47;;;12.40;99.90;;;;;;4963639;28;20026;-82
2023/10/05 00:42:08;;;;;;;22.23;6.85;;;12.40;99.90;;;;;;4966903;28;20155;-80
2023/10/05 00:44:36;;;;;;;22.48;7.53;;;12.40;99.90;;;;;;4962353;28;20545;-81
2023/10/05 00:47:06;;;;;;;22.08;7.68;;;12.50;99.90;;;;;;4966010;28;20113;-80
2023/10/05 00:52:16;;;;;;;25.35;7.70;;;12.40;99.90;;;;;;4956325;28;20043;-81
2023/10/05 00:54:51;;;;;;;27.92;9.02;;;12.40;99.90;;;;;;4963599;28;20383;-81
2023/10/05 00:57:22;;;;;;;23.10;7.68;;;12.50;99.90;;;;;;4966738;28;20062;-81
2023/10/05 01:02:32;;;;;;;20.38;8.07;;;12.50;99.90;;;;;;4960422;28;20085;-80
2023/10/05 01:05:01;;;;;;;23.67;7.80;;;12.50;99.90;;;;;;4960691;28;20114;-81
2023/10/05 01:12:43;;;;;;;28.30;8.20;;;12.50;99.90;;;;;;4962016;28;20066;-81
2023/10/05 01:15:16;;;;;;;24.58;8.55;;;12.50;99.90;;;;;;4959621;28;20467;-81
2023/10/05 01:17:42;;;;;;;21.23;7.63;;;12.40;99.90;;;;;;4962305;28;20050;-80
2023/10/05 01:22:44;;;;;;;20.92;7.35;;;12.40;99.90;;;;;;4963496;28;20114;-82
2023/10/05 01:25:16;;;;;;;24.17;8.52;;;12.40;99.90;;;;;;4960387;28;20035;-81
2023/10/05 01:27:47;;;;;;;19.27;8.23;;;12.40;99.90;;;;;;4959785;28;20044;-81
2023/10/05 01:30:14;;;;;;;24.75;9.20;;;12.40;99.90;;;;;;4955704;28;20030;-82
2023/10/05 01:32:41;;;;;;;26.80;8.00;;;12.30;99.90;;;;;;4963890;28;20058;-80
2023/10/05 01:35:09;;;;;;;28.73;9.15;;;12.30;99.90;;;;;;4964367;28;20678;-81
2023/10/05 01:37:37;;;;;;;22.63;7.70;;;12.30;99.90;;;;;;4959808;28;20424;-80
2023/10/05 01:42:44;;;;;;;26.25;8.07;;;12.20;99.90;;;;;;4963095;28;20078;-81
2023/10/05 01:45:15;;;;;;;19.30;7.75;;;12.20;99.90;;;;;;4963386;28;20035;-81
2023/10/05 01:47:43;;;;;;;23.17;8.43;;;12.20;99.90;;;;;;4962247;28;20498;-81
2023/10/05 01:50:16;;;;;;;21.38;7.80;;;12.20;99.90;;;;;;4956225;28;20030;-79
2023/10/05 01:52:41;;;;;;;30.10;8.60;;;12.20;99.90;;;;;;4957264;28;20043;-80
2023/10/05 01:55:11;;;;;;;27.75;7.72;;;12.20;99.90;;;;;;4959104;28;20030;-79
2023/10/05 01:57:36;;;;;;;25.35;8.52;;;12.20;99.90;;;;;;4963167;28;20098;-79
2023/10/05 02:00:03;;;;;;;33.05;8.35;;;12.20;99.90;;;;;;4960393;28;20451;-80
2023/10/05 02:02:29;;;;;;;32.47;9.35;;;12.20;99.90;;;;;;4961969;28;20034;-79
2023/10/05 02:04:55;;;;;;;27.38;9.73;;;12.30;99.90;;;;;;4960591;28;20034;-80
2023/10/05 02:07:23;;;;;;;26.50;8.20;;;12.30;99.90;;;;;;4959609;28;20035;-80
2023/10/05 02:09:50;;;;;;;29.05;9.35;;;12.30;99.90;;;;;;4962626;28;20067;-80
2023/10/05 02:12:19;;;;;;;25.25;7.97;;;12.40;99.90;;;;;;4965281;28;20043;-79
2023/10/05 02:14:46;;;;;;;25.13;7.90;;;12.40;99.90;;;;;;4957543;28;20125;-79
2023/10/05 02:17:13;;;;;;;33.00;10.98;;;12.50;99.90;;;;;;4961837;28;20038;-81
2023/10/05 02:19:39;;;;;;;35.92;9.15;;;12.50;99.90;;;;;;4960719;28;20027;-82
2023/10/05 02:22:11;;;;;;;28.40;8.55;;;12.50;99.90;;;;;;4964203;28;20038;-80
2023/10/05 02:24:40;;;;;;;28.98;8.55;;;12.50;99.90;;;;;;4964728;28;20037;-81
2023/10/05 02:27:09;;;;;;;24.77;8.63;;;12.60;99.90;;;;;;4960333;28;20058;-81
2023/10/05 02:29:35;;;;;;;24.98;8.15;;;12.60;99.90;;;;;;4960813;28;20303;-80
2023/10/05 02:37:04;;;;;;;28.95;8.63;;;12.70;99.90;;;;;;4962265;28;20062;-80
2023/10/05 02:39:32;;;;;;;26.40;9.13;;;12.70;99.90;;;;;;4960296;28;20328;-79
2023/10/05 02:42:03;;;;;;;32.45;8.30;;;12.70;99.90;;;;;;4962724;28;20027;-81
2023/10/05 02:44:30;;;;;;;28.55;7.75;;;12.70;99.90;;;;;;4959474;28;20249;-79
2023/10/05 02:46:55;;;;;;;32.92;9.02;;;12.70;99.90;;;;;;4963854;28;20538;-79
2023/10/05 02:49:25;;;;;;;27.80;9.32;;;12.70;99.90;;;;;;4961852;28;20027;-80
2023/10/05 02:51:54;;;;;;;25.52;8.20;;;12.80;99.90;;;;;;4954738;28;20027;-81
2023/10/05 02:54:24;;;;;;;30.65;9.32;;;12.80;99.90;;;;;;4961705;28;20084;-80
2023/10/05 02:56:53;;;;;;;27.38;9.13;;;12.90;99.90;;;;;;4959339;28;20026;-81
2023/10/05 02:59:21;;;;;;;27.42;9.02;;;12.90;99.90;;;;;;4963939;28;20406;-80
2023/10/05 03:01:48;;;;;;;37.08;8.77;;;12.90;99.90;;;;;;4964106;28;20027;-80
2023/10/05 03:06:39;;;;;;;31.33;9.10;;;12.90;99.90;;;;;;4960615;28;20416;-81
2023/10/05 03:09:09;;;;;;;25.25;7.28;;;12.90;99.90;;;;;;4960010;28;20031;-81
2023/10/05 03:11:39;;;;;;;19.10;7.35;;;13.00;99.90;;;;;;4956665;28;20058;-80
2023/10/05 03:14:06;;;;;;;30.58;8.52;;;13.00;99.90;;;;;;4960102;28;20070;-80
2023/10/05 03:16:43;;;;;;;22.73;7.72;;;13.00;99.90;;;;;;4963005;28;20055;-79
2023/10/05 03:19:21;;;;;;;23.77;7.88;;;13.00;99.90;;;;;;4958857;28;20050;-79
2023/10/05 03:21:49;;;;;;;21.02;7.70;;;13.00;99.90;;;;;;4961531;28;20183;-81
2023/10/05 03:24:14;;;;;;;31.02;8.27;;;13.10;99.90;;;;;;4960896;28;20034;-80
2023/10/05 03:26:43;;;;;;;24.55;7.85;;;13.10;99.90;;;;;;4955165;28;20530;-79
2023/10/05 03:29:11;;;;;;;24.60;7.50;;;13.10;99.90;;;;;;4959313;28;20038;-81
2023/10/05 03:31:43;;;;;;;25.20;7.95;;;13.10;99.90;;;;;;4954087;28;20439;-78
2023/10/05 03:34:12;;;;;;;26.90;9.40;;;13.10;99.90;;;;;;4953097;28;20245;-81
2023/10/05 03:36:38;;;;;;;24.05;7.32;;;13.10;99.90;;;;;;4963080;28;20063;-78
2023/10/05 03:39:07;;;;;;;23.60;7.78;;;13.10;99.90;;;;;;4963165;28;20077;-80
2023/10/05 03:41:34;;;;;;;26.10;7.75;;;13.10;99.90;;;;;;4961301;28;20023;-78
2023/10/05 03:44:03;;;;;;;30.42;8.15;;;13.10;99.90;;;;;;4956444;28;20038;-80
2023/10/05 03:46:29;;;;;;;25.10;6.63;;;13.10;99.90;;;;;;4958560;28;20358;-80
2023/10/05 03:49:00;;;;;;;22.83;7.88;;;13.10;99.90;;;;;;4962401;28;20031;-79
2023/10/05 03:51:26;;;;;;;22.83;7.60;;;13.10;99.90;;;;;;4958581;28;20492;-80
2023/10/05 03:53:52;;;;;;;17.02;6.80;;;13.10;99.90;;;;;;4960232;28;20233;-79
2023/10/05 03:56:19;;;;;;;26.65;8.18;;;13.00;99.90;;;;;;4959218;28;20034;-80
2023/10/05 03:58:48;;;;;;;20.80;7.38;;;13.00;99.90;;;;;;4956830;28;20693;-80
2023/10/05 04:01:15;;;;;;;21.13;7.10;;;13.00;99.90;;;;;;4963695;28;20420;-80
2023/10/05 04:03:46;;;;;;;26.30;7.82;;;13.00;99.90;;;;;;4961062;28;20106;-84
2023/10/05 04:06:28;;;;;;;29.98;6.22;;;13.00;99.90;;;;;;4962119;28;20038;-80
2023/10/05 04:08:59;;;;;;;23.25;7.38;;;13.00;99.90;;;;;;4958708;28;20081;-78
2023/10/05 04:11:33;;;;;;;20.75;7.03;;;13.00;99.90;;;;;;4961503;28;20038;-81
2023/10/05 04:14:01;;;;;;;29.48;7.70;;;12.90;99.90;;;;;;4964276;28;20039;-79
2023/10/05 04:16:28;;;;;;;28.05;6.68;;;13.00;99.90;;;;;;4961849;28;20362;-80
2023/10/05 04:18:55;;;;;;;19.55;6.25;;;13.00;99.90;;;;;;4964716;28;20488;-80
2023/10/05 04:21:24;;;;;;;20.40;5.82;;;13.00;99.90;;;;;;4963487;28;20130;-80
2023/10/05 04:23:50;;;;;;;22.85;6.97;;;13.00;99.90;;;;;;4965772;28;20027;-80
2023/10/05 04:26:18;;;;;;;17.73;7.07;;;13.00;99.90;;;;;;4965630;28;20173;-79
2023/10/05 04:28:52;;;;;;;23.05;6.22;;;13.00;99.90;;;;;;4966435;28;20517;-79
2023/10/05 04:31:25;;;;;;;19.88;6.53;;;13.00;99.90;;;;;;4963060;28;20307;-81
2023/10/05 04:33:52;;;;;;;25.80;6.50;;;13.00;99.90;;;;;;4963104;28;20813;-80
2023/10/05 04:36:19;;;;;;;18.52;5.82;;;12.90;99.90;;;;;;4966626;28;20085;-78
2023/10/05 04:38:46;;;;;;;25.85;6.53;;;13.00;99.90;;;;;;4964773;28;20031;-80
2023/10/05 04:41:19;;;;;;;17.52;5.80;;;13.00;99.90;;;;;;4962258;28;20026;-80
2023/10/05 04:43:50;;;;;;;16.90;6.15;;;13.00;99.90;;;;;;4960601;28;20043;-78
2023/10/05 04:46:21;;;;;;;23.60;6.15;;;13.00;99.90;;;;;;4962944;28;20101;-81
2023/10/05 04:49:28;;;;;;;19.05;6.10;;;13.00;99.90;;;;;;4961896;28;20035;-81
2023/10/05 04:51:38;;;;;;;15.70;5.65;;;13.00;99.90;;;;;;4946156;28;20138;-80
2023/10/05 04:54:11;;;;;;;14.50;5.88;;;13.00;99.90;;;;;;4963316;28;20391;-81
2023/10/05 04:56:54;;;;;;;26.10;6.57;;;12.90;99.90;;;;;;4967856;28;20368;-79
2023/10/05 05:02:47;;;;;;;24.05;6.07;;;13.00;99.90;;;;;;4955719;28;20121;-81
2023/10/05 05:05:32;;;;;;;;;;;12.90;99.90;;;;;;4959311;28;20086;-79
2023/10/05 05:08:02;;;;;;;33.40;6.85;;;13.00;99.90;;;;;;4965456;28;19910;-80
2023/10/05 05:10:28;;;;;;;19.65;5.85;;;12.90;99.90;;;;;;4961807;28;20056;-80
2023/10/05 05:12:59;;;;;;;18.27;5.50;;;12.90;99.90;;;;;;4966872;28;20031;-81
2023/10/05 05:15:38;;;;;;;20.73;7.00;;;12.90;99.90;;;;;;4963864;28;20443;-80
2023/10/05 05:18:16;;;;;;;21.85;5.65;;;12.90;99.90;;;;;;4962013;28;20104;-84
2023/10/05 05:20:43;;;;;;;15.88;5.53;;;13.00;99.90;;;;;;4964434;28;20073;-81
2023/10/05 05:23:12;;;;;;;22.30;6.38;;;12.90;99.90;;;;;;4968425;28;20035;-83
2023/10/05 05:25:39;;;;;;;22.58;6.15;;;13.00;99.90;;;;;;4965661;28;20037;-80
2023/10/05 05:28:05;;;;;;;25.38;6.10;;;13.00;99.90;;;;;;4958743;28;20396;-81
2023/10/05 05:30:42;;;;;;;24.35;5.85;;;13.00;99.90;;;;;;4957243;28;20027;-80
2023/10/05 05:33:14;;;;;;;31.30;6.03;;;13.00;99.90;;;;;;4963817;28;20037;-81
2023/10/05 05:35:40;;;;;;;23.15;5.65;;;13.00;99.90;;;;;;4965188;28;20084;-81
2023/10/05 05:38:11;;;;;;;19.70;5.32;;;13.00;99.90;;;;;;4964327;28;20536;-79
2023/10/05 05:40:37;;;;;;;21.73;5.30;;;13.00;99.90;;;;;;4965477;28;20026;-81
2023/10/05 05:43:14;;;;;;;27.40;6.63;;;13.00;99.90;;;;;;4966457;28;20230;-79
2023/10/05 05:45:43;;;;;;;22.00;6.18;;;13.00;99.90;;;;;;4964417;28;20030;-82
2023/10/05 05:48:13;;;;;;;16.02;5.20;;;13.00;99.90;;;;;;4965018;28;20034;-79
2023/10/05 05:50:47;;;;;;;23.33;5.95;;;13.00;99.90;;;;;;4962517;28;20495;-81
2023/10/05 05:53:40;;;;;;;20.35;5.22;;;13.00;99.90;;;;;;4959506;28;20503;-80
2023/10/05 05:56:32;;;;;;;19.58;6.28;;;13.10;99.90;;;;;;4964076;28;20030;-81
2023/10/05 05:58:58;;;;;;;17.05;5.57;;;13.10;99.90;;;;;;4958942;28;20043;-81
2023/10/05 06:01:26;;;;;;;22.77;6.47;;;13.00;99.90;;;;;;4963818;28;20026;-81
2023/10/05 06:03:51;;;;;;;18.17;5.55;;;13.00;99.90;;;;;;4964736;28;20078;-80
2023/10/05 06:06:19;;;;;;;15.40;5.10;;;13.00;99.90;;;;;;4958583;28;20073;-81
2023/10/05 06:08:44;;;;;;;21.30;6.30;;;13.00;99.90;;;;;;4964229;28;20340;-83
2023/10/05 06:11:12;;;;;;;17.13;5.35;;;13.00;99.90;;;;;;4963640;28;20034;-81
2023/10/05 06:13:38;;;;;;;15.43;5.15;;;13.10;99.90;;;;;;4960550;28;20027;-80
2023/10/05 06:16:10;;;;;;;17.30;4.95;;;13.10;99.90;;;;;;4956439;28;20589;-80
2023/10/05 06:18:38;;;;;;;38.83;7.97;;;13.10;99.90;;;;;;4962501;28;20706;-85
2023/10/05 06:21:05;;;;;;;19.75;6.07;;;13.10;99.90;;;;;;4962979;28;20405;-80
2023/10/05 06:23:33;;;;;;;21.27;4.95;;;13.20;99.90;;;;;;4958540;28;20063;-80
2023/10/05 06:25:59;;;;;;;13.43;5.15;;;13.20;99.90;;;;;;4958116;28;20043;-81
2023/10/05 06:28:26;;;;;;;16.40;5.22;;;13.20;99.90;;;;;;4960573;28;20122;-82
2023/10/05 06:30:52;;;;;;;14.63;4.65;;;13.20;99.90;;;;;;4964220;28;20030;-81
2023/10/05 06:33:20;;;;;;;17.40;5.20;;;13.20;99.90;;;;;;4962256;28;20111;-80
2023/10/05 06:35:46;;;;;;;32.28;6.57;;;13.30;99.90;;;;;;4957198;28;20035;-80
2023/10/05 06:38:12;;;;;;;24.92;5.65;;;13.30;99.90;;;;;;4957616;28;20039;-81
2023/10/05 06:40:40;;;;;;;14.35;4.65;;;13.30;99.90;;;;;;4958846;28;20049;-80
2023/10/05 06:43:06;;;;;;;14.90;4.45;;;13.40;99.90;;;;;;4961524;28;20042;-82
2023/10/05 06:45:32;;;;;;;21.88;4.60;;;13.40;99.90;;;;;;4959563;28;20399;-78
2023/10/05 06:47:57;;;;;;;23.48;5.82;;;13.40;99.90;;;;;;4957435;28;20423;-80
2023/10/05 06:50:23;;;;;;;15.60;5.45;;;13.40;99.90;;;;;;4959391;28;20034;-81
2023/10/05 06:52:49;;;;;;;17.05;6.20;;;13.40;99.90;;;;;;4953767;28;20027;-81
2023/10/05 06:55:18;;;;;;;15.70;5.07;;;13.40;99.90;;;;;;4958529;28;20218;-81
2023/10/05 06:57:46;;;;;;;16.33;4.65;;;13.40;99.90;;;;;;4960509;28;20035;-81
2023/10/05 07:00:20;;;;;;;23.42;5.45;;;13.40;99.90;;;;;;4962149;28;20038;-82
2023/10/05 07:02:58;;;;;;;18.17;4.82;;;13.40;99.90;;;;;;4959590;28;20030;-81
2023/10/05 07:05:28;;;;;;;18.80;4.22;;;13.50;99.90;;;;;;4964929;28;20037;-80
2023/10/05 07:07:54;;;;;;;11.05;4.72;;;13.50;99.90;;;;;;4958779;28;20089;-84
2023/10/05 07:10:23;;;;;;;19.08;4.35;;;13.50;99.90;;;;;;4960701;28;20031;-82
2023/10/05 07:12:50;;;;;;;14.90;5.18;;;13.50;99.90;;;;;;4959163;28;20027;-82
2023/10/05 07:15:23;;;;;;;21.90;5.03;;;13.50;99.90;;;;;;4960420;28;20429;-81
2023/10/05 07:17:53;;;;;;;15.80;5.20;;;13.60;99.90;;;;;;4962347;28;20050;-82
2023/10/05 07:20:19;;;;;;;16.60;5.03;;;13.60;99.90;;;;;;4959083;28;20026;-81
2023/10/05 07:22:46;;;;;;;19.52;5.50;;;13.60;99.90;;;;;;4956285;28;20023;-81
2023/10/05 07:25:14;;;;;;;14.57;4.57;;;13.60;99.90;;;;;;4963779;28;20543;-81
2023/10/05 07:27:43;;;;;;;17.48;5.25;;;13.50;99.90;;;;;;4955938;28;20039;-83
2023/10/05 07:30:14;;;;;;;18.60;4.63;;;13.60;99.90;;;;;;4961235;28;20030;-81
2023/10/05 07:32:43;;;;;;;23.67;5.68;;;13.60;99.90;;;;;;4960596;28;20064;-80
2023/10/05 07:35:12;;;;;;;17.55;5.00;;;13.70;99.90;;;;;;4962787;28;20183;-82
2023/10/05 07:37:41;;;;;;;13.60;4.30;;;13.70;99.90;;;;;;4961865;28;20039;-80
2023/10/05 07:40:13;;;;;;;15.23;4.53;;;13.70;99.90;;;;;;4962120;28;20453;-80
2023/10/05 07:42:41;;;;;;;14.38;4.18;;;13.80;99.90;;;;;;4963882;28;20480;-80
2023/10/05 07:45:07;;;;;;;10.95;4.00;;;13.80;99.90;;;;;;4961014;28;20038;-81
2023/10/05 07:47:43;;;;;;;15.55;4.40;;;13.70;99.90;;;;;;4962994;28;20373;-81
2023/10/05 07:50:15;;;;;;;18.83;4.68;;;13.70;99.90;;;;;;4967176;28;20045;-79
2023/10/05 07:52:44;;;;;;;13.95;4.55;;;13.80;99.90;;;;;;4963555;28;20742;-80
2023/10/05 07:55:10;;;;;;;17.90;4.18;;;13.80;99.90;;;;;;4964936;28;20082;-78
2023/10/05 07:57:36;;;;;;;15.38;4.05;;;13.80;99.90;;;;;;4960709;28;20039;-79
2023/10/05 08:00:04;;;;;;;11.90;3.95;;;13.80;99.90;;;;;;4963501;28;20023;-81
2023/10/05 08:02:32;;;;;;;15.68;4.72;;;13.80;99.90;;;;;;4967714;28;20031;-78
2023/10/05 08:04:59;;;;;;;11.60;3.50;;;13.80;99.90;;;;;;4966812;28;20031;-80
2023/10/05 08:07:25;;;;;;;16.70;3.67;;;13.80;99.90;;;;;;4966472;28;20054;-79
2023/10/05 08:09:51;;;;;;;12.63;4.50;;;13.80;99.90;;;;;;4965622;28;20027;-79
2023/10/05 08:12:16;;;;;;;14.13;3.72;;;13.90;99.90;;;;;;4960349;28;20035;-81
2023/10/05 08:14:44;;;;;;;10.48;3.78;;;13.80;99.90;;;;;;4969177;28;20510;-80
2023/10/05 08:17:12;;;;;;;11.63;3.92;;;13.90;99.90;;;;;;4964347;28;20027;-81
2023/10/05 08:19:38;;;;;;;20.30;4.75;;;14.00;99.90;;;;;;4961818;28;20485;-80
2023/10/05 08:22:03;;;;;;;17.15;3.90;;;13.90;99.90;;;;;;4958717;28;20041;-81
2023/10/05 08:24:31;;;;;;;16.40;4.50;;;14.00;99.90;;;;;;4962333;28;20057;-80
2023/10/05 08:26:57;;;;;;;13.18;3.95;;;14.00;99.90;;;;;;4966243;28;20097;-81
2023/10/05 08:29:22;;;;;;;13.52;4.93;;;14.00;99.90;;;;;;4963632;28;20098;-82
2023/10/05 08:31:52;;;;;;;19.70;4.68;;;14.00;99.90;;;;;;4965093;28;20460;-80
2023/10/05 08:34:21;;;;;;;21.55;4.85;;;14.00;99.90;;;;;;4963919;28;20023;-79
2023/10/05 08:36:53;;;;;;;18.83;4.70;;;14.10;99.90;;;;;;4957532;28;20579;-83
2023/10/05 08:39:25;;;;;;;21.35;4.50;;;14.10;99.90;;;;;;4962432;28;20107;-80
2023/10/05 08:41:55;;;;;;;20.27;4.95;;;14.10;99.90;;;;;;4962983;28;20031;-81
2023/10/05 08:44:28;;;;;;;17.40;4.60;;;14.10;99.90;;;;;;4963055;28;20037;-81
2023/10/05 08:46:58;;;;;;;17.60;4.43;;;14.10;99.90;;;;;;4962433;28;20062;-83
2023/10/05 08:49:24;;;;;;;14.20;4.60;;;14.20;99.90;;;;;;4966706;28;20066;-81
2023/10/05 08:51:51;;;;;;;18.92;6.10;;;14.20;99.90;;;;;;4958054;28;20030;-78
2023/10/05 08:54:21;;;;;;;16.88;4.07;;;14.20;99.90;;;;;;4963464;28;20031;-81
2023/10/05 08:56:48;;;;;;;15.57;4.75;;;14.20;99.90;;;;;;4964599;28;20030;-81
2023/10/05 08:59:14;;;;;;;15.38;4.57;;;14.20;99.90;;;;;;4962683;28;20038;-82
2023/10/05 09:01:50;;;;;;;21.25;4.22;;;14.20;99.90;;;;;;4959161;28;20015;-80
2023/10/05 09:06:55;;;;;;;18.98;4.25;;;14.30;99.90;;;;;;4960072;28;20602;-79
2023/10/05 09:09:37;;;;;;;16.98;4.53;;;14.30;99.90;;;;;;4963512;28;20030;-80
2023/10/05 09:12:45;;;;;;;12.20;3.80;;;14.30;99.90;;;;;;4955894;28;20043;-83
2023/10/05 09:17:58;;;;;;;20.38;4.78;;;14.40;99.90;;;;;;4964024;28;20117;-80
2023/10/05 09:20:38;;;;;;;15.32;4.55;;;14.50;99.90;;;;;;4958594;28;20554;-81
2023/10/05 09:23:06;;;;;;;15.23;4.63;;;14.50;99.90;;;;;;4963486;28;20042;-79
2023/10/05 09:25:45;;;;;;;17.50;4.30;;;14.60;99.90;;;;;;4961086;28;20050;-80
2023/10/05 09:28:13;;;;;;;14.77;3.90;;;14.60;99.90;;;;;;4962778;28;20026;-80
2023/10/05 09:30:57;;;;;;;14.18;4.38;;;14.60;99.90;;;;;;4962745;28;20034;-80
2023/10/05 09:33:25;;;;;;;19.08;4.28;;;14.70;99.90;;;;;;4961280;28;20023;-80
2023/10/05 09:35:55;;;;;;;15.20;3.95;;;14.70;99.90;;;;;;4964849;28;20046;-79
2023/10/05 09:38:24;;;;;;;10.77;3.22;;;14.70;99.90;;;;;;4958765;28;20177;-82
2023/10/05 09:40:54;;;;;;;24.75;4.68;;;14.80;99.90;;;;;;4965178;28;20384;-79
2023/10/05 09:43:25;;;;;;;15.35;4.38;;;14.90;99.90;;;;;;4956312;28;20050;-81
2023/10/05 09:45:56;;;;;;;9.02;3.85;;;14.90;99.90;;;;;;4965586;28;20034;-80
2023/10/05 09:48:24;;;;;;;22.65;5.68;;;14.90;99.90;;;;;;4964552;28;20037;-82
2023/10/05 09:50:52;;;;;;;10.45;3.42;;;14.90;99.90;;;;;;4960921;28;20023;-82
2023/10/05 09:53:18;;;;;;;15.55;3.78;;;15.00;99.90;;;;;;4958799;28;20129;-82
2023/10/05 09:55:50;;;;;;;14.90;4.13;;;15.00;99.90;;;;;;4962752;28;20101;-81
2023/10/05 09:58:18;;;;;;;21.25;3.70;;;15.10;99.90;;;;;;4976747;28;20070;-81
2023/10/05 10:03:12;;;;;;;17.20;4.50;;;15.20;99.90;;;;;;4962296;28;20031;-83
2023/10/05 10:05:44;;;;;;;14.43;4.30;;;15.20;99.90;;;;;;4958190;28;20039;-83
2023/10/05 10:08:20;;;;;;;14.07;3.75;;;15.20;99.90;;;;;;4960939;28;20042;-86
2023/10/05 10:14:01;;;;;;;14.45;4.65;;;15.30;99.90;;;;;;4920076;28;20049;-81
2023/10/05 10:16:28;;;;;;;9.15;3.47;;;15.30;99.90;;;;;;4961374;28;20054;-83
2023/10/05 10:19:04;;;;;;;15.05;3.88;;;15.40;99.90;;;;;;4961661;28;20320;-81
2023/10/05 10:21:46;;;;;;;16.83;4.13;;;15.40;99.90;;;;;;4960731;28;20037;-82
2023/10/05 10:24:15;;;;;;;19.63;3.95;;;15.40;99.90;;;;;;4961120;28;20042;-80
2023/10/05 10:27:07;;;;;;;10.43;3.53;;;15.40;99.90;;;;;;4961538;28;20031;-82
2023/10/05 10:29:45;;;;;;;13.85;3.63;;;15.40;99.90;;;;;;4962210;28;20367;-79
2023/10/05 10:32:22;;;;;;;9.60;3.35;;;15.40;99.90;;;;;;4952519;28;20058;-81
2023/10/05 10:35:07;;;;;;;14.25;3.33;;;15.50;99.90;;;;;;4961501;28;20141;-80
2023/10/05 10:37:39;;;;;;;8.23;3.80;;;15.60;99.90;;;;;;4957516;28;20075;-80
2023/10/05 10:45:32;;;;;;;15.10;3.67;;;15.80;99.90;;;;;;4961076;28;20042;-81
2023/10/05 10:47:59;;;;;;;13.10;3.63;;;15.70;99.90;;;;;;4957633;28;20595;-83
2023/10/05 10:50:31;;;;;;;23.42;5.15;;;15.70;99.90;;;;;;4958959;28;20031;-82
2023/10/05 10:52:58;;;;;;;10.98;3.40;;;15.70;99.90;;;;;;4961901;28;20090;-78
2023/10/05 10:55:31;;;;;;;16.98;3.92;;;15.80;99.90;;;;;;4957027;28;20031;-78
2023/10/05 10:57:59;;;;;;;15.27;3.30;;;15.80;99.90;;;;;;4952806;28;20519;-87
2023/10/05 11:03:12;;;;;;;25.08;4.35;;;15.80;99.90;;;;;;4952372;28;20119;-79
2023/10/05 11:05:43;;;;;;;11.73;3.25;;;15.90;99.90;;;;;;4954748;28;20034;-79
2023/10/05 11:08:13;;;;;;;12.40;3.28;;;15.90;99.90;;;;;;4958611;28;20035;-80
2023/10/05 11:10:42;;;;;;;17.00;3.95;;;15.90;99.90;;;;;;4955211;28;20107;-80
2023/10/05 11:13:18;;;;;;;12.70;3.75;;;16.00;99.90;;;;;;4962891;28;20106;-79
2023/10/05 11:15:58;;;;;;;;;;;16.00;99.90;;;;;;4961023;28;20027;-80
2023/10/05 11:18:26;;;;;;;17.05;3.15;;;16.00;99.90;;;;;;4971085;28;19918;-83
2023/10/05 11:20:52;;;;;;;10.25;3.40;;;16.00;99.90;;;;;;4955075;28;20029;-81
2023/10/05 11:23:25;;;;;;;23.05;3.75;;;15.90;99.90;;;;;;4957683;28;20027;-79
2023/10/05 11:25:54;;;;;;;8.45;2.97;;;16.00;99.90;;;;;;4958380;28;20440;-81
2023/10/05 11:28:25;;;;;;;13.50;3.88;;;16.00;99.90;;;;;;4959932;28;20033;-81
2023/10/05 11:30:55;;;;;;;17.13;3.58;;;16.00;99.90;;;;;;4964161;28;20031;-80
2023/10/05 11:33:23;;;;;;;13.65;3.72;;;16.10;99.90;;;;;;4955529;28;20035;-82
2023/10/05 11:35:54;;;;;;;13.77;3.75;;;16.10;99.90;;;;;;4952384;28;20049;-82
2023/10/05 11:38:26;;;;;;;14.85;4.15;;;16.10;99.90;;;;;;4951401;28;20491;-80
2023/10/05 11:40:55;;;;;;;18.05;3.58;;;16.10;99.90;;;;;;4953468;28;20476;-82
2023/10/05 11:43:26;;;;;;;11.52;3.80;;;16.20;99.90;;;;;;4955637;28;20469;-81
2023/10/05 11:46:17;;;;;;;12.30;3.30;;;16.20;99.90;;;;;;4956059;28;20038;-83
2023/10/05 11:48:55;;;;;;;5.97;2.50;;;16.30;99.90;;;;;;4954790;28;20089;-83
2023/10/05 11:51:41;;;;;;;11.15;3.58;;;16.30;99.90;;;;;;4957515;28;20033;-80
2023/10/05 11:54:19;;;;;;;17.38;4.28;;;16.30;99.90;;;;;;4959507;28;20041;-81
2023/10/05 11:56:46;;;;;;;10.07;3.28;;;16.20;99.90;;;;;;4963069;28;20034;-80
2023/10/05 11:59:12;;;;;;;13.32;3.55;;;16.30;99.90;;;;;;4955470;28;20050;-82
2023/10/05 12:01:41;;;;;;;17.40;3.63;;;16.30;99.90;;;;;;4957151;28;20387;-82
2023/10/05 12:04:08;;;;;;;11.57;3.38;;;16.30;99.90;;;;;;4952392;28;20030;-80
2023/10/05 12:06:39;;;;;;;12.15;3.70;;;16.30;99.90;;;;;;4956200;28;20286;-81
2023/10/05 12:09:09;;;;;;;8.25;3.58;;;16.40;99.90;;;;;;4957019;28;20109;-81
2023/10/05 12:11:43;;;;;;;9.32;3.00;;;16.40;99.90;;;;;;4953698;28;20035;-83
2023/10/05 12:14:10;;;;;;;11.43;3.90;;;16.40;99.90;;;;;;4957343;28;20069;-81
2023/10/05 12:16:38;;;;;;;14.00;4.47;;;16.50;99.90;;;;;;4956341;28;20321;-81
2023/10/05 12:19:14;;;;;;;14.80;3.83;;;16.60;99.90;;;;;;4960385;28;20046;-83
2023/10/05 12:21:44;;;;;;;17.77;4.05;;;16.60;99.90;;;;;;4960067;28;20027;-81
2023/10/05 12:24:13;;;;;;;13.40;3.83;;;16.60;99.90;;;;;;4956610;28;20089;-80
2023/10/05 12:26:42;;;;;;;10.65;3.33;;;16.50;99.90;;;;;;4960286;28;20027;-80
2023/10/05 12:29:14;;;;;;;10.38;3.95;;;16.50;99.90;;;;;;4953982;28;20543;-81
2023/10/05 12:31:47;;;;;;;15.93;5.13;;;16.40;99.90;;;;;;4953974;28;20039;-82
2023/10/05 12:34:16;;;;;;;10.73;3.70;;;16.40;99.90;;;;;;4958029;28;20496;-80
2023/10/05 12:36:51;;;;;;;11.52;3.63;;;16.30;99.90;;;;;;4964963;28;20488;-80
2023/10/05 12:39:17;;;;;;;18.43;4.00;;;16.30;99.90;;;;;;4962537;28;20122;-79
2023/10/05 12:41:48;;;;;;;13.88;4.15;;;16.30;99.90;;;;;;4957982;28;20351;-82
2023/10/05 12:44:15;;;;;;;11.13;3.88;;;16.40;99.90;;;;;;4961856;28;20551;-80
2023/10/05 12:46:41;;;;;;;14.40;4.13;;;16.30;99.90;;;;;;4959552;28;20035;-81
2023/10/05 12:49:08;;;;;;;20.52;4.60;;;16.30;99.90;;;;;;4964004;28;20117;-81
2023/10/05 12:51:37;;;;;;;22.65;4.28;;;16.30;99.90;;;;;;4964488;28;20032;-80
2023/10/05 12:54:08;;;;;;;10.57;3.22;;;16.30;99.90;;;;;;4961147;28;20479;-78
2023/10/05 12:56:34;;;;;;;14.13;4.95;;;16.30;99.90;;;;;;4961911;28;20027;-79
2023/10/05 12:59:03;;;;;;;12.05;3.65;;;16.30;99.90;;;;;;4960736;28;20098;-82
2023/10/05 13:01:29;;;;;;;13.25;3.85;;;16.40;99.90;;;;;;4965001;28;20500;-81
2023/10/05 13:03:56;;;;;;;15.77;4.00;;;16.40;99.90;;;;;;4958430;28;20035;-80
2023/10/05 13:06:24;;;;;;;12.38;4.47;;;16.50;99.90;;;;;;4968536;28;20035;-80
2023/10/05 13:08:50;;;;;;;11.13;3.30;;;16.60;99.90;;;;;;4966195;28;20679;-81
2023/10/05 13:11:18;;;;;;;16.33;4.82;;;16.60;99.90;;;;;;4962111;28;20407;-80
2023/10/05 13:13:47;;;;;;;14.32;5.03;;;16.70;99.90;;;;;;4962693;28;20031;-80
2023/10/05 13:16:21;;;;;;;12.75;3.75;;;16.80;99.90;;;;;;4964558;28;20503;-85
2023/10/05 13:18:47;;;;;;;14.63;3.42;;;16.80;99.90;;;;;;4961201;28;20038;-81
2023/10/05 13:21:14;;;;;;;11.38;4.00;;;16.90;99.90;;;;;;4962868;28;20411;-79
2023/10/05 13:23:40;;;;;;;12.63;3.67;;;16.90;99.90;;;;;;4962728;28;20043;-80
2023/10/05 13:26:06;;;;;;;13.00;3.80;;;17.00;99.90;;;;;;4964933;28;20121;-82
2023/10/05 13:28:33;;;;;;;17.60;4.53;;;17.00;99.90;;;;;;4964011;28;20540;-80
2023/10/05 13:31:05;;;;;;;11.50;3.50;;;17.10;99.90;;;;;;4963584;28;20049;-80
2023/10/05 13:33:39;;;;;;;11.23;3.80;;;17.10;99.90;;;;;;4962991;28;20022;-82
2023/10/05 13:36:06;;;;;;;12.20;3.15;;;17.00;99.90;;;;;;4962872;28;20043;-79
2023/10/05 13:38:33;;;;;;;13.23;3.83;;;16.90;99.90;;;;;;4964509;28;20068;-79